Wednesday, April 25, 2018, 5:03 AM EDT
Back to Local

KCDW, Caldwell Essex County Airport

Location: Fairfield, NJ, United States Lat: 40.883
Local Time: 5:03 AM EDT ( 9:03 GMT) Lon: -74.283
Time Zone: US/Eastern Elev: 173 ft

Show me the last for .
Show Decoded

2018-04-25 04:21 METAR KCDW 250821Z AUTO 08007KT 3SM -RA BR OVC005 10/10 A3000 RMK AO2 P0001
                 T01000100 =
2018-04-25 04:12 METAR KCDW 250812Z AUTO 07008KT 2 1/2SM -RA BR OVC005 10/10 A3001 RMK AO2 CIG
                 004V009 P0001 T01000100 =
2018-04-25 03:53 METAR KCDW 250753Z AUTO 07007KT 3SM -RA BR OVC005 10/10 A3002 RMK AO2 CIG
                 004V009 SLP172 P0001 T01000100 =
2018-04-25 03:27 METAR KCDW 250727Z AUTO 07010KT 3SM -RA BR BKN007 OVC011 10/10 A3004 RMK AO2 CIG
                 005V009 P0000 T01000100 =
2018-04-25 03:13 METAR KCDW 250713Z AUTO 05006KT 4SM -RA BR FEW007 OVC011 10/10 A3005 RMK AO2
                 P0000 T01000100 =
2018-04-25 02:53 METAR KCDW 250653Z AUTO 07009KT 3SM -RA BR OVC011 09/09 A3005 RMK AO2 SLP182
                 P0000 T00940094 =
2018-04-25 02:03 METAR KCDW 250603Z AUTO 06008KT 7SM -RA BKN014 OVC019 09/09 A3008 RMK AO2 P0000
                 T00940089 =
2018-04-25 01:53 METAR KCDW 250553Z AUTO 07008KT 9SM -RA BKN016 OVC100 09/09 A3009 RMK AO2 SLP193
                 P0000 60004 T00940089 10139 20094 58033 =
2018-04-25 00:53 METAR KCDW 250453Z AUTO 08007KT 7SM -RA SCT017 BKN023 OVC028 10/09 A3013 RMK AO2
                 SLP208 P0002 T01000094 401780022 =
2018-04-25 00:32 METAR KCDW 250432Z AUTO 08008KT 7SM -RA FEW016 BKN025 OVC060 10/09 A3014 RMK AO2
                 P0001 T01000094 =
2018-04-24 23:53 METAR KCDW 250353Z AUTO 08008KT 6SM -RA BR FEW023 BKN050 OVC065 11/10 A3016 RMK
                 AO2 SLP217 P0002 T01060100 =
2018-04-24 22:53 METAR KCDW 250253Z AUTO 10009KT 7SM -RA FEW035 OVC065 11/09 A3019 RMK AO2 RAB05
                 SLP227 P0000 60000 T01110094 58013 =
2018-04-24 21:53 METAR KCDW 250153Z AUTO 13007KT 10SM FEW024 BKN037 OVC060 12/08 A3021 RMK AO2
                 RAB22E52 SLP236 P0000 T01170083 =
2018-04-24 20:53 METAR KCDW 250053Z AUTO 13007KT 10SM FEW046 BKN055 BKN070 13/04 A3022 RMK AO2
                 SLP239 T01330044 =
2018-04-24 19:53 METAR KCDW 242353Z AUTO 14008KT 10SM FEW050 SCT065 13/05 A3022 RMK AO2 SLP240
                 T01330050 10178 20133 55011 =
2018-04-24 18:53 METAR KCDW 242253Z AUTO 16009KT 10SM SCT060 BKN075 14/06 A3022 RMK AO2 SLP240
                 T01390056 =
2018-04-24 17:53 METAR KCDW 242153Z AUTO 17010KT 10SM SCT055 SCT070 15/04 A3024 RMK AO2 SLP248
                 T01500044 =
2018-04-24 16:53 METAR KCDW 242053Z AUTO 14010KT 10SM CLR 16/04 A3026 RMK AO2 SLP252 T01560044
                 56019 =
2018-04-24 15:53 METAR KCDW 241953Z 16014G23KT 10SM CLR 16/04 A3027 RMK AO2 SLP256 T01610044 =
2018-04-24 14:53 METAR KCDW 241853Z 16015KT 10SM CLR 17/03 A3029 RMK AO2 SLP263 T01670033 =
2018-04-24 13:53 METAR KCDW 241753Z 16013G21KT 10SM CLR 17/03 A3031 RMK AO2 SLP270 T01670028
                 10178 20072 57023 =
2018-04-24 12:53 METAR KCDW 241653Z 16010G20KT 10SM CLR 17/02 A3033 RMK AO2 SLP277 T01720022 =
2018-04-24 11:53 METAR KCDW 241553Z 16011G18KT 10SM CLR 17/03 A3036 RMK AO2 SLP287 T01670028 =
2018-04-24 10:53 METAR KCDW 241453Z 14009KT 10SM CLR 16/02 A3038 RMK AO2 SLP294 T01560022 58013 =
2018-04-24 09:53 METAR KCDW 241353Z 18003KT 10SM CLR 14/02 A3040 RMK AO2 SLP300 T01390022 =
2018-04-24 08:53 METAR KCDW 241253Z 00000KT 9SM CLR 11/06 A3041 RMK AO2 SLP302 T01110056 =
2018-04-24 07:53 METAR KCDW 241153Z 00000KT 8SM CLR 07/04 A3042 RMK AO2 SLP306 T00720039 10072
                 20022 51007 =
2018-04-24 06:53 METAR KCDW 241053Z AUTO 08003KT 10SM CLR 03/02 A3041 RMK AO2 SLP304 T00280017 =
2018-04-24 05:53 METAR KCDW 240953Z AUTO 00000KT 10SM CLR 03/01 A3041 RMK AO2 SLP305 T00280011 =

Support USWX by starting your Amazon purchase here.